Time;durP1;ratioP1;P1;durP2;ratioP2;P2;SDS_P1;SDS_P2;PMS_P1;PMS_P2;Temp;Humidity;BMP_temperature;BMP_pressure;BME280_temperature;BME280_humidity;BME280_pressure;Samples;Min_cycle;Max_cycle;Signal;HPM_P1;HPM_P2
2022/06/19 00:00:23;;;;;;;5.12;3.84;;;;;;;13.89;60.77;100069.66;364818;145;857174;-57
2022/06/19 00:01:25;;;;;;;5.59;4.47;;;;;;;13.89;60.77;100069.66;364129;145;856144;-57
2022/06/19 00:02:27;;;;;;;5.91;4.31;;;;;;;;;;363346;146;857258;-57
2022/06/19 00:03:33;;;;;;;5.13;4.26;;;;;;;;;;364045;145;858696;-56
2022/06/19 00:04:35;;;;;;;7.99;4.51;;;;;;;;;;361511;146;857241;-57
2022/06/19 00:05:36;;;;;;;6.16;4.57;;;;;;;;;;363860;146;858872;-56
2022/06/19 00:06:38;;;;;;;6.04;4.04;;;;;;;;;;364002;145;857328;-57
2022/06/19 00:07:40;;;;;;;7.16;4.53;;;;;;;;;;366081;145;864939;-58
2022/06/19 00:08:41;;;;;;;9.26;4.82;;;;;;;;;;364398;146;858248;-57
2022/06/19 00:09:43;;;;;;;6.59;4.33;;;;;;;;;;363445;146;857337;-57
2022/06/19 00:10:45;;;;;;;8.46;4.04;;;;;;;;;;363602;145;865751;-57
2022/06/19 00:11:47;;;;;;;8.06;4.38;;;;;;;;;;362413;146;866157;-57
2022/06/19 00:12:48;;;;;;;6.23;4.55;;;;;;;;;;364555;146;857707;-56
2022/06/19 00:13:50;;;;;;;8.91;4.49;;;;;;;;;;365087;145;857033;-56
2022/06/19 00:14:51;;;;;;;5.19;4.26;;;;;;;;;;364152;145;859134;-56
2022/06/19 00:15:53;;;;;;;5.39;4.17;;;;;;;;;;362005;145;865479;-57
2022/06/19 00:16:55;;;;;;;5.73;4.56;;;;;;;;;;364024;145;864816;-57
2022/06/19 00:17:57;;;;;;;6.80;4.50;;;;;;;;;;363211;145;857142;-57
2022/06/19 00:18:58;;;;;;;6.78;4.27;;;;;;;;;;363883;146;858758;-57
2022/06/19 00:20:00;;;;;;;8.03;4.11;;;;;;;;;;362443;147;857325;-57
2022/06/19 00:21:01;;;;;;;6.67;4.34;;;;;;;;;;351640;150;865238;-56
2022/06/19 00:22:03;;;;;;;5.23;4.10;;;;;;;;;;365181;147;857280;-57
2022/06/19 00:23:05;;;;;;;5.41;4.16;;;;;;;;;;362761;146;860630;-57
2022/06/19 00:24:06;;;;;;;9.87;4.61;;;;;;;;;;362073;146;864779;-57
2022/06/19 00:25:08;;;;;;;8.48;4.12;;;;;;;;;;363727;145;857319;-57
2022/06/19 00:26:12;;;;;;;5.04;4.21;;;;;;;;;;363744;145;865531;-57
2022/06/19 00:27:14;;;;;;;8.39;4.21;;;;;;;;;;364662;146;863119;-57
2022/06/19 00:28:15;;;;;;;6.18;4.57;;;;;;;;;;363905;146;858948;-57
2022/06/19 00:29:17;;;;;;;6.14;4.39;;;;;;;;;;362759;145;865273;-57
2022/06/19 00:30:19;;;;;;;5.93;4.42;;;;;;;;;;362944;146;857290;-57
2022/06/19 00:31:20;;;;;;;6.81;4.37;;;;;;;;;;361080;146;857212;-57
2022/06/19 00:32:25;;;;;;;5.11;4.49;;;;;;;;;;364616;145;858660;-57
2022/06/19 00:33:25;;;;;;;5.17;3.95;;;;;;;;;;364339;146;859105;-56
2022/06/19 00:34:27;;;;;;;6.50;4.59;;;;;;;;;;363877;145;857932;-57
2022/06/19 00:35:29;;;;;;;7.16;4.46;;;;;;;;;;361433;145;857286;-57
2022/06/19 00:36:30;;;;;;;5.64;4.25;;;;;;;;;;363921;145;857294;-57
2022/06/19 00:37:33;;;;;;;11.49;4.17;;;;;;;;;;362934;145;857375;-57
2022/06/19 00:38:35;;;;;;;4.90;4.18;;;;;;;;;;363411;146;865382;-57
2022/06/19 00:39:39;;;;;;;5.53;4.31;;;;;;;;;;364530;146;857348;-57
2022/06/19 00:40:40;;;;;;;5.25;4.42;;;;;;;;;;362727;145;865791;-57
2022/06/19 00:41:44;;;;;;;5.64;4.36;;;;;;;;;;364350;146;866563;-57
2022/06/19 00:42:45;;;;;;;10.84;4.51;;;;;;;;;;364735;146;864779;-58
2022/06/19 00:43:55;;;;;;;5.19;4.41;;;;;;;;;;364989;146;860290;-57
2022/06/19 00:44:57;;;;;;;7.07;4.54;;;;;;;;;;363540;145;857546;-56
2022/06/19 00:45:59;;;;;;;5.32;4.10;;;;;;;;;;363455;146;858242;-57
2022/06/19 00:47:09;;;;;;;5.54;3.75;;;;;;;;;;361501;146;860112;-56
2022/06/19 00:48:13;;;;;;;5.13;4.14;;;;;;;;;;364190;146;857762;-57
2022/06/19 00:49:16;;;;;;;6.99;4.36;;;;;;;;;;361807;146;860047;-57
2022/06/19 00:50:30;;;;;;;5.51;4.44;;;;;;;;;;364516;145;857954;-57
2022/06/19 00:51:31;;;;;;;5.72;3.97;;;;;;;;;;362811;146;858042;-58
2022/06/19 00:52:35;;;;;;;6.53;4.67;;;;;;;;;;361171;145;857245;-58
2022/06/19 00:53:38;;;;;;;6.78;4.28;;;;;;;;;;362872;146;864909;-58
2022/06/19 00:54:54;;;;;;;5.81;4.47;;;;;;;;;;364432;146;857792;-58
2022/06/19 00:55:55;;;;;;;6.48;3.92;;;;;;;;;;363738;145;857138;-57
2022/06/19 00:56:57;;;;;;;5.69;4.60;;;;;;;;;;363253;145;857226;-57
2022/06/19 00:58:00;;;;;;;5.31;4.04;;;;;;;;;;364843;145;857224;-57
2022/06/19 00:59:02;;;;;;;7.11;4.03;;;;;;;;;;364840;145;857168;-57
2022/06/19 01:00:11;;;;;;;6.49;4.67;;;;;;;;;;356674;148;857338;-58
2022/06/19 01:01:14;;;;;;;5.99;3.86;;;;;;;;;;358983;145;865181;-58
2022/06/19 01:02:16;;;;;;;6.03;4.16;;;;;;;;;;363557;146;857158;-57
2022/06/19 01:10:51;;;;;;;13.07;4.30;;;;;;;13.37;61.96;100064.52;373061;142;879080;-58
2022/06/19 01:11:53;;;;;;;5.45;4.24;;;;;;;13.25;62.16;100064.70;368589;144;859454;-56
2022/06/19 01:12:54;;;;;;;4.93;4.16;;;;;;;13.25;62.10;100062.97;367878;144;857189;-58
2022/06/19 01:13:57;;;;;;;5.49;4.01;;;;;;;13.27;62.36;100068.16;362725;147;865252;-57
2022/06/19 01:15:02;;;;;;;10.65;4.21;;;;;;;13.28;62.04;100062.92;364001;146;866446;-57
2022/06/19 01:16:04;;;;;;;4.96;4.18;;;;;;;13.27;61.99;100062.97;365964;144;857082;-57
2022/06/19 01:17:06;;;;;;;4.97;4.12;;;;;;;13.24;62.03;100062.98;366817;144;865420;-57
2022/06/19 01:18:08;;;;;;;7.56;4.26;;;;;;;13.21;62.32;100068.23;368101;144;859678;-57
2022/06/19 01:19:11;;;;;;;6.15;4.28;;;;;;;13.21;62.32;100070.84;370208;144;864837;-57
2022/06/19 01:20:14;;;;;;;6.86;4.06;;;;;;;13.21;62.68;100071.71;358818;147;857312;-57
2022/06/19 01:21:26;;;;;;;6.72;4.64;;;;;;;13.24;62.30;100069.06;363230;144;864748;-58
2022/06/19 01:22:43;;;;;;;7.41;4.27;;;;;;;13.24;62.19;100066.46;366136;144;856970;-57
2022/06/19 01:24:00;;;;;;;5.64;4.24;;;;;;;13.22;62.09;100067.36;367920;144;857293;-58
2022/06/19 01:25:09;;;;;;;5.77;4.36;;;;;;;13.20;62.41;100079.52;366867;144;857967;-57
2022/06/19 01:26:11;;;;;;;5.53;4.34;;;;;;;13.21;62.35;100073.44;366071;144;858648;-57
2022/06/19 01:28:45;;;;;;;6.84;4.96;;;;;;;13.20;62.49;100075.20;366628;144;858969;-57
2022/06/19 01:29:44;;;;;;;6.64;4.45;;;;;;;;;;361783;147;857478;-57
2022/06/19 01:30:46;;;;;;;6.50;4.19;;;;;;;;;;363192;147;857558;-57
2022/06/19 01:31:48;;;;;;;5.47;4.43;;;;;;;;;;363494;147;861834;-57
2022/06/19 01:32:50;;;;;;;6.32;4.50;;;;;;;;;;362305;147;857650;-56
2022/06/19 01:33:59;;;;;;;4.89;4.19;;;;;;;;;;362411;147;857182;-56
2022/06/19 01:35:01;;;;;;;12.93;4.45;;;;;;;;;;361556;147;866458;-56
2022/06/19 01:36:03;;;;;;;5.41;4.31;;;;;;;;;;360231;147;857558;-57
2022/06/19 01:37:12;;;;;;;9.94;4.94;;;;;;;;;;361459;147;865948;-57
2022/06/19 01:38:14;;;;;;;6.28;3.88;;;;;;;;;;360098;147;857305;-57
2022/06/19 01:39:16;;;;;;;5.53;4.13;;;;;;;;;;361128;147;857346;-57
2022/06/19 01:40:19;;;;;;;6.62;3.83;;;;;;;;;;360850;147;858769;-55
2022/06/19 01:41:25;;;;;;;6.17;4.06;;;;;;;;;;363433;147;857308;-58
2022/06/19 01:42:28;;;;;;;6.31;4.44;;;;;;;;;;361729;147;856824;-58
2022/06/19 01:43:29;;;;;;;6.04;4.40;;;;;;;;;;361843;147;859015;-58
2022/06/19 01:44:31;;;;;;;5.40;4.08;;;;;;;;;;363557;147;857049;-56
2022/06/19 01:45:33;;;;;;;4.75;4.01;;;;;;;;;;362499;147;859084;-57
2022/06/19 01:46:34;;;;;;;7.19;4.46;;;;;;;;;;362757;147;858592;-57
2022/06/19 01:47:36;;;;;;;7.27;4.41;;;;;;;;;;361331;147;865503;-57
2022/06/19 01:48:38;;;;;;;6.44;4.39;;;;;;;;;;361935;147;857459;-56
2022/06/19 01:49:41;;;;;;;5.53;4.42;;;;;;;;;;362194;147;865100;-57
2022/06/19 01:50:44;;;;;;;7.16;4.52;;;;;;;;;;360795;147;858933;-57
2022/06/19 01:51:46;;;;;;;7.64;4.53;;;;;;;;;;359987;147;859815;-56
2022/06/19 01:52:48;;;;;;;5.33;4.34;;;;;;;;;;364252;147;857233;-56
2022/06/19 01:54:00;;;;;;;6.47;4.24;;;;;;;;;;361343;147;859613;-56
2022/06/19 01:55:07;;;;;;;5.16;4.34;;;;;;;;;;361134;147;858004;-56
2022/06/19 01:56:09;;;;;;;6.78;4.27;;;;;;;;;;361090;147;857661;-57
2022/06/19 01:57:11;;;;;;;7.38;4.20;;;;;;;;;;361388;147;858941;-56
2022/06/19 01:58:12;;;;;;;6.60;4.51;;;;;;;;;;362322;147;857103;-57
2022/06/19 01:59:14;;;;;;;6.64;4.59;;;;;;;;;;361507;147;865574;-56
2022/06/19 02:00:17;;;;;;;4.46;4.04;;;;;;;;;;360912;147;857398;-57
2022/06/19 02:01:19;;;;;;;5.94;4.09;;;;;;;;;;363638;147;866530;-57
2022/06/19 02:02:21;;;;;;;7.61;4.42;;;;;;;;;;363193;147;858068;-57
2022/06/19 02:03:27;;;;;;;10.94;4.87;;;;;;;;;;360332;147;857238;-57
2022/06/19 02:04:29;;;;;;;7.22;4.38;;;;;;;;;;360825;147;857183;-57
2022/06/19 02:05:31;;;;;;;6.86;4.53;;;;;;;;;;356699;149;857324;-57
2022/06/19 02:06:34;;;;;;;11.93;4.97;;;;;;;;;;356505;148;858681;-57
2022/06/19 02:07:36;;;;;;;11.47;4.59;;;;;;;;;;360759;147;857325;-58
2022/06/19 02:08:37;;;;;;;5.36;4.23;;;;;;;;;;362410;147;859880;-57
2022/06/19 02:09:39;;;;;;;11.55;5.02;;;;;;;;;;363078;147;866734;-57
2022/06/19 02:10:41;;;;;;;7.66;4.79;;;;;;;;;;361195;147;857476;-58
2022/06/19 02:11:43;;;;;;;12.02;4.84;;;;;;;;;;357924;148;866686;-58
2022/06/19 02:12:44;;;;;;;7.24;4.76;;;;;;;;;;357604;148;865132;-56
2022/06/19 02:13:46;;;;;;;6.46;4.69;;;;;;;;;;357078;148;865652;-57
2022/06/19 02:14:48;;;;;;;8.46;4.75;;;;;;;;;;358066;148;865934;-57
2022/06/19 02:15:50;;;;;;;8.86;4.45;;;;;;;;;;358596;148;864846;-58
2022/06/19 02:16:51;;;;;;;5.66;4.23;;;;;;;;;;358854;148;857444;-58
2022/06/19 02:17:54;;;;;;;5.69;4.41;;;;;;;;;;359197;148;857555;-57
2022/06/19 02:18:55;;;;;;;5.77;4.43;;;;;;;;;;357806;148;865746;-57
2022/06/19 02:19:57;;;;;;;6.51;4.52;;;;;;;;;;352402;151;857552;-57
2022/06/19 02:20:59;;;;;;;5.33;4.55;;;;;;;;;;346776;153;857545;-57
2022/06/19 02:22:00;;;;;;;4.56;4.09;;;;;;;;;;352147;151;857256;-59
2022/06/19 02:23:05;;;;;;;4.99;4.24;;;;;;;;;;346040;152;857298;-58
2022/06/19 02:24:06;;;;;;;7.69;4.08;;;;;;;;;;345800;151;859056;-59
2022/06/19 02:25:08;;;;;;;8.71;4.45;;;;;;;;;;346692;153;857365;-58
2022/06/19 02:26:12;;;;;;;6.28;4.21;;;;;;;;;;347378;153;857770;-58
2022/06/19 02:27:15;;;;;;;6.93;4.51;;;;;;;;;;346908;153;857635;-57
2022/06/19 02:28:18;;;;;;;7.31;4.36;;;;;;;;;;346451;153;858690;-57
2022/06/19 02:29:19;;;;;;;6.79;3.94;;;;;;;;;;344612;154;864837;-57
2022/06/19 02:30:21;;;;;;;9.64;4.46;;;;;;;;;;345853;154;857320;-57
2022/06/19 02:43:47;;;;;;;15.75;4.56;;;;;;;14.39;63.95;100089.50;369560;142;878266;-58
2022/06/19 02:44:50;;;;;;;8.13;3.87;;;;;;;14.35;63.69;100096.51;364467;145;857203;-58
2022/06/19 02:45:52;;;;;;;7.58;4.28;;;;;;;14.36;63.55;100100.83;365095;146;858502;-58
2022/06/19 02:46:54;;;;;;;8.21;4.56;;;;;;;14.35;63.55;100098.27;362853;146;858990;-57
2022/06/19 02:47:57;;;;;;;6.16;4.98;;;;;;;14.36;63.65;100093.02;363127;146;857256;-58
2022/06/19 02:48:59;;;;;;;7.17;4.37;;;;;;;14.33;63.47;100090.48;359612;146;864939;-57
2022/06/19 02:50:01;;;;;;;5.61;4.02;;;;;;;14.33;63.47;100090.48;351331;150;857349;-57
2022/06/19 02:51:04;;;;;;;6.20;4.44;;;;;;;14.26;63.29;100096.70;353269;147;866992;-58
2022/06/19 02:52:07;;;;;;;6.41;4.35;;;;;;;14.23;63.75;100092.40;359617;147;865690;-57
2022/06/19 02:53:09;;;;;;;5.01;3.99;;;;;;;14.27;63.68;100088.84;359085;147;858985;-57
2022/06/19 02:54:12;;;;;;;5.49;4.37;;;;;;;14.33;63.83;100095.69;358642;147;857271;-58
2022/06/19 02:55:14;;;;;;;7.45;4.10;;;;;;;14.35;63.63;100088.69;358712;148;859355;-57
2022/06/19 02:56:16;;;;;;;5.97;4.07;;;;;;;14.33;63.59;100087.87;358006;147;865743;-58
2022/06/19 02:57:18;;;;;;;5.84;4.41;;;;;;;14.38;64.03;100085.19;357983;147;858819;-56
2022/06/19 02:58:20;;;;;;;6.29;4.23;;;;;;;14.39;63.71;100084.29;357146;147;864808;-59
2022/06/19 02:59:22;;;;;;;7.68;4.42;;;;;;;14.40;63.69;100086.01;357441;147;857331;-58
2022/06/19 03:00:25;;;;;;;9.14;4.65;;;;;;;14.43;63.82;100084.17;359491;147;856456;-57
2022/06/19 03:01:27;;;;;;;8.46;4.32;;;;;;;14.43;64.09;100081.57;358721;147;858422;-58
2022/06/19 03:02:31;;;;;;;6.32;4.25;;;;;;;14.46;63.93;100080.66;357103;147;859133;-57
2022/06/19 03:03:36;;;;;;;6.74;4.50;;;;;;;14.51;64.03;100081.42;359210;147;857244;-57
2022/06/19 03:04:56;;;;;;;8.56;4.54;;;;;;;14.56;64.09;100084.78;357584;147;865077;-57
2022/06/19 03:05:58;;;;;;;9.27;4.47;;;;;;;14.56;64.09;100084.78;357099;147;859367;-57
2022/06/19 03:06:59;;;;;;;5.90;4.17;;;;;;;14.67;64.20;100075.86;356379;147;858915;-57
2022/06/19 03:08:01;;;;;;;7.94;4.85;;;;;;;14.75;64.27;100071.36;359502;147;857329;-57
2022/06/19 03:09:03;;;;;;;5.09;4.19;;;;;;;14.84;64.29;100071.14;358284;147;856994;-57
2022/06/19 03:10:06;;;;;;;6.95;4.55;;;;;;;14.92;63.43;100072.70;359867;147;858825;-57
2022/06/19 03:11:10;;;;;;;6.89;4.26;;;;;;;15.01;62.88;100065.53;358425;147;857281;-57
2022/06/19 03:12:11;;;;;;;5.88;4.43;;;;;;;15.11;62.41;100068.75;357818;147;857302;-57
2022/06/19 03:13:14;;;;;;;6.36;4.29;;;;;;;15.21;62.02;100072.00;359024;148;859840;-59
2022/06/19 03:14:16;;;;;;;6.54;4.37;;;;;;;15.28;61.77;100067.47;354036;149;864852;-60
2022/06/19 03:15:18;;;;;;;5.90;4.17;;;;;;;15.36;61.76;100068.13;355126;148;857353;-59
2022/06/19 03:16:20;;;;;;;6.60;3.96;;;;;;;15.36;61.76;100068.13;352257;150;857385;-58
2022/06/19 03:17:22;;;;;;;6.09;4.50;;;;;;;15.45;62.26;100072.27;351351;152;857222;-59
2022/06/19 03:18:24;;;;;;;6.69;4.08;;;;;;;15.50;62.11;100072.16;356093;147;857231;-58
2022/06/19 03:19:26;;;;;;;6.94;4.59;;;;;;;15.53;61.99;100066.86;358288;147;857264;-57
2022/06/19 03:31:09;;;;;;;5.51;3.69;;;;;;;15.74;61.83;100068.89;369786;141;881241;-58
2022/06/19 03:32:12;;;;;;;5.08;3.73;;;;;;;15.75;62.13;100075.82;356953;149;857340;-57
2022/06/19 03:33:14;;;;;;;6.77;3.67;;;;;;;15.84;61.52;100069.47;357835;147;864733;-58
2022/06/19 03:34:15;;;;;;;5.59;4.06;;;;;;;15.93;61.02;100068.41;361570;144;858632;-58
2022/06/19 03:35:17;;;;;;;4.67;3.94;;;;;;;16.02;60.77;100068.14;363571;144;864787;-56
2022/06/19 03:36:21;;;;;;;5.80;3.80;;;;;;;;;;363331;144;864747;-59
2022/06/19 03:37:22;;;;;;;4.19;3.79;;;;;;;;;;362851;144;864717;-60
2022/06/19 03:38:24;;;;;;;7.91;3.89;;;;;;;;;;363573;145;856884;-57
2022/06/19 03:39:25;;;;;;;5.04;3.41;;;;;;;;;;363395;144;856332;-59
2022/06/19 03:40:27;;;;;;;4.80;3.81;;;;;;;;;;362667;145;863690;-60
2022/06/19 03:41:29;;;;;;;9.02;3.76;;;;;;;;;;362774;144;856175;-58
2022/06/19 03:42:31;;;;;;;5.18;3.60;;;;;;;;;;363135;144;857433;-59
2022/06/19 03:43:35;;;;;;;5.71;3.50;;;;;;;;;;361153;144;863882;-59
2022/06/19 03:44:37;;;;;;;4.54;3.62;;;;;;;;;;362021;144;863764;-60
2022/06/19 03:45:38;;;;;;;7.44;3.62;;;;;;;;;;362429;144;857014;-58
2022/06/19 03:46:40;;;;;;;6.44;3.59;;;;;;;;;;362714;147;857112;-59
2022/06/19 03:47:41;;;;;;;5.16;3.61;;;;;;;;;;363395;147;856430;-60
2022/06/19 03:50:39;;;;;;;5.20;3.34;;;;;;;16.96;58.77;100058.33;369722;142;881348;-59
2022/06/19 03:51:43;;;;;;;4.37;3.21;;;;;;;16.90;58.92;100061.15;359616;147;858825;-62
2022/06/19 03:52:46;;;;;;;3.73;3.38;;;;;;;16.94;58.75;100066.25;361170;147;863792;-60
2022/06/19 03:53:47;;;;;;;4.64;3.51;;;;;;;16.99;58.58;100062.66;359438;147;856166;-60
2022/06/19 03:54:49;;;;;;;6.39;3.69;;;;;;;17.01;58.94;100060.84;361280;147;856181;-61
2022/06/19 03:55:51;;;;;;;3.72;3.29;;;;;;;;;;362995;147;863671;-59
2022/06/19 03:56:53;;;;;;;4.99;3.24;;;;;;;;;;359896;147;863724;-63
2022/06/19 03:57:54;;;;;;;4.49;3.26;;;;;;;;;;360408;147;863660;-58
2022/06/19 03:58:56;;;;;;;7.77;3.21;;;;;;;;;;360692;144;863723;-60
2022/06/19 03:59:58;;;;;;;4.51;3.59;;;;;;;;;;360334;147;856139;-59
2022/06/19 04:00:59;;;;;;;7.00;3.40;;;;;;;;;;361015;147;856179;-60
2022/06/19 04:02:02;;;;;;;6.52;3.77;;;;;;;;;;361182;147;856768;-61
2022/06/19 04:03:03;;;;;;;5.51;3.54;;;;;;;;;;361018;147;863616;-60
2022/06/19 04:04:05;;;;;;;3.82;3.39;;;;;;;;;;361046;147;856178;-58
2022/06/19 04:05:07;;;;;;;6.11;3.69;;;;;;;;;;361132;147;863653;-61
2022/06/19 04:06:10;;;;;;;6.35;3.44;;;;;;;;;;360744;147;863745;-60
2022/06/19 04:07:12;;;;;;;5.33;3.50;;;;;;;;;;359695;147;856325;-60
2022/06/19 04:08:15;;;;;;;4.28;3.30;;;;;;;;;;360209;147;856335;-60
2022/06/19 04:09:17;;;;;;;4.21;3.22;;;;;;;;;;357550;149;856292;-59
2022/06/19 04:10:19;;;;;;;4.49;3.34;;;;;;;;;;357594;149;863578;-61
2022/06/19 04:11:21;;;;;;;4.26;2.98;;;;;;;;;;354872;147;864845;-59
2022/06/19 04:12:23;;;;;;;3.93;3.13;;;;;;;;;;356092;150;857308;-60
2022/06/19 04:13:24;;;;;;;4.41;3.22;;;;;;;;;;356345;149;856922;-60
2022/06/19 04:14:26;;;;;;;3.59;3.12;;;;;;;;;;356877;147;858098;-59
2022/06/19 04:15:27;;;;;;;4.28;3.04;;;;;;;;;;356963;147;859520;-59
2022/06/19 04:16:30;;;;;;;3.94;3.56;;;;;;;;;;357588;150;857147;-59
2022/06/19 04:17:32;;;;;;;4.23;3.76;;;;;;;;;;355943;149;865523;-59
2022/06/19 04:18:33;;;;;;;5.97;3.39;;;;;;;;;;356650;149;865408;-56
2022/06/19 04:19:35;;;;;;;4.44;3.31;;;;;;;;;;357188;147;864855;-56
2022/06/19 04:20:37;;;;;;;5.59;3.37;;;;;;;;;;355481;147;866574;-60
2022/06/19 04:21:43;;;;;;;4.64;3.34;;;;;;;;;;356354;150;857458;-58
2022/06/19 04:22:44;;;;;;;5.03;3.44;;;;;;;;;;356135;148;858304;-57
2022/06/19 04:23:46;;;;;;;4.03;3.24;;;;;;;;;;357171;147;860480;-58
2022/06/19 04:24:48;;;;;;;4.84;3.33;;;;;;;;;;355405;148;857293;-58
2022/06/19 04:25:49;;;;;;;3.75;2.97;;;;;;;;;;357183;150;864796;-57
2022/06/19 04:26:51;;;;;;;4.36;3.05;;;;;;;;;;355404;150;858281;-58
2022/06/19 04:27:52;;;;;;;5.65;3.05;;;;;;;;;;356001;149;865370;-57
2022/06/19 04:28:55;;;;;;;5.03;2.99;;;;;;;;;;354976;148;864953;-57
2022/06/19 04:29:56;;;;;;;4.81;2.90;;;;;;;;;;355729;150;857375;-58
2022/06/19 04:30:58;;;;;;;4.34;3.36;;;;;;;;;;356298;147;857324;-57
2022/06/19 04:31:59;;;;;;;5.93;3.34;;;;;;;;;;355457;147;865867;-58
2022/06/19 04:33:01;;;;;;;6.82;3.31;;;;;;;;;;356450;147;857265;-57
2022/06/19 04:34:02;;;;;;;4.13;2.89;;;;;;;;;;357047;147;857240;-56
2022/06/19 04:35:04;;;;;;;4.16;3.06;;;;;;;;;;357269;147;858151;-57
2022/06/19 04:36:09;;;;;;;3.68;2.69;;;;;;;;;;357545;147;858273;-57
2022/06/19 04:37:11;;;;;;;3.27;2.81;;;;;;;;;;356184;147;858770;-56
2022/06/19 04:38:12;;;;;;;3.80;2.90;;;;;;;;;;349180;152;857593;-57
2022/06/19 04:39:14;;;;;;;3.48;2.88;;;;;;;;;;356827;149;857256;-56
2022/06/19 04:40:17;;;;;;;9.66;2.91;;;;;;;;;;356314;148;857254;-56
2022/06/19 04:41:20;;;;;;;3.15;2.74;;;;;;;;;;355559;149;858931;-56
2022/06/19 04:42:22;;;;;;;4.83;3.54;;;;;;;;;;355552;148;864777;-56
2022/06/19 04:43:24;;;;;;;3.74;2.74;;;;;;;;;;355208;149;857355;-58
2022/06/19 04:44:25;;;;;;;3.62;3.12;;;;;;;;;;356270;148;860789;-56
2022/06/19 04:45:27;;;;;;;5.01;2.87;;;;;;;;;;356277;149;857242;-59
2022/06/19 04:46:29;;;;;;;3.24;2.88;;;;;;;;;;356405;147;858542;-57
2022/06/19 04:47:30;;;;;;;3.28;2.65;;;;;;;;;;357056;149;864756;-58
2022/06/19 04:48:32;;;;;;;5.29;2.84;;;;;;;;;;358845;148;857431;-57
2022/06/19 04:49:34;;;;;;;3.66;2.74;;;;;;;;;;356875;149;859038;-57
2022/06/19 04:50:36;;;;;;;8.29;2.98;;;;;;;;;;356454;147;857456;-57
2022/06/19 04:51:38;;;;;;;3.48;2.69;;;;;;;;;;355049;150;866617;-56
2022/06/19 04:52:39;;;;;;;3.49;2.54;;;;;;;;;;356646;148;865855;-57
2022/06/19 04:53:41;;;;;;;3.34;2.52;;;;;;;;;;354070;150;864780;-59
2022/06/19 04:54:44;;;;;;;6.84;2.58;;;;;;;;;;356297;147;857502;-57
2022/06/19 04:55:45;;;;;;;2.61;2.41;;;;;;;;;;356879;149;859116;-55
2022/06/19 04:56:47;;;;;;;6.00;2.73;;;;;;;;;;356998;148;857427;-57
2022/06/19 04:57:49;;;;;;;6.62;2.78;;;;;;;;;;356294;147;858752;-57
2022/06/19 04:58:51;;;;;;;4.13;2.34;;;;;;;;;;357449;147;857265;-57
2022/06/19 04:59:52;;;;;;;4.66;2.81;;;;;;;;;;357149;147;857328;-58
2022/06/19 05:00:54;;;;;;;3.97;2.51;;;;;;;;;;355007;149;859075;-58
2022/06/19 05:01:55;;;;;;;6.80;3.20;;;;;;;;;;356953;147;867277;-58
2022/06/19 05:02:57;;;;;;;3.59;2.68;;;;;;;;;;355125;149;857197;-58
2022/06/19 05:03:59;;;;;;;3.21;2.38;;;;;;;;;;356183;149;857269;-59
2022/06/19 05:05:01;;;;;;;4.36;2.61;;;;;;;;;;355946;147;859105;-58
2022/06/19 05:06:03;;;;;;;2.93;2.11;;;;;;;;;;347343;151;858205;-57
2022/06/19 05:07:05;;;;;;;4.43;2.64;;;;;;;;;;357026;147;857383;-59
2022/06/19 05:08:07;;;;;;;3.36;2.54;;;;;;;;;;355575;147;865085;-58
2022/06/19 05:09:08;;;;;;;6.15;2.62;;;;;;;;;;356583;147;858588;-58
2022/06/19 05:10:10;;;;;;;2.62;2.33;;;;;;;;;;355814;147;859205;-58
2022/06/19 05:11:12;;;;;;;4.69;2.30;;;;;;;;;;356117;147;858713;-58
2022/06/19 05:12:14;;;;;;;3.52;2.18;;;;;;;;;;356440;150;864808;-57
2022/06/19 05:13:16;;;;;;;3.13;2.56;;;;;;;;;;356890;150;859169;-58
2022/06/19 05:14:17;;;;;;;3.38;2.61;;;;;;;;;;358315;147;859886;-58
2022/06/19 05:15:19;;;;;;;4.92;2.28;;;;;;;;;;356950;147;857736;-57
2022/06/19 05:28:48;;;;;;;5.32;2.23;;;;;;;22.23;45.85;100081.41;372560;141;875060;-58
2022/06/19 05:29:50;;;;;;;2.43;2.23;;;;;;;22.08;47.60;100096.30;364112;147;859049;-57
2022/06/19 05:30:52;;;;;;;3.14;2.29;;;;;;;22.02;46.71;100091.36;362843;144;860859;-57
2022/06/19 05:31:53;;;;;;;3.77;2.53;;;;;;;21.91;46.81;100086.64;365962;145;857235;-58
2022/06/19 05:32:55;;;;;;;4.14;2.31;;;;;;;21.85;47.45;100085.20;361520;144;865761;-58
2022/06/19 05:33:57;;;;;;;4.57;2.61;;;;;;;21.79;48.01;100092.56;364745;145;865581;-59
2022/06/19 05:34:59;;;;;;;3.15;2.29;;;;;;;21.70;47.05;100080.70;363936;146;866465;-57
2022/06/19 05:36:00;;;;;;;4.09;2.31;;;;;;;21.62;47.61;100081.09;363719;145;866005;-58
2022/06/19 05:37:03;;;;;;;4.13;2.19;;;;;;;21.62;48.87;100085.50;363539;144;864737;-59
2022/06/19 05:38:05;;;;;;;4.11;2.33;;;;;;;21.64;48.36;100081.03;362821;147;857801;-57
2022/06/19 05:39:08;;;;;;;2.36;2.16;;;;;;;21.66;48.59;100084.44;356278;149;864906;-58
2022/06/19 05:40:11;;;;;;;7.70;2.35;;;;;;;21.60;49.06;100085.59;363357;146;866454;-57
2022/06/19 05:41:13;;;;;;;2.65;2.19;;;;;;;21.60;49.44;100089.06;364574;144;859768;-59
2022/06/19 05:42:15;;;;;;;2.37;2.15;;;;;;;;;;362997;144;857538;-58
2022/06/19 05:43:16;;;;;;;2.75;2.13;;;;;;;;;;363189;146;864497;-57
2022/06/19 05:44:18;;;;;;;4.72;2.33;;;;;;;;;;364026;144;866657;-56
2022/06/19 05:45:19;;;;;;;5.66;2.49;;;;;;;;;;353883;148;865708;-57
2022/06/19 05:46:21;;;;;;;3.40;2.13;;;;;;;;;;361259;144;857320;-57
2022/06/19 05:47:23;;;;;;;5.53;2.13;;;;;;;;;;365322;145;864753;-56
2022/06/19 05:48:24;;;;;;;5.27;2.59;;;;;;;;;;357553;147;858919;-57
2022/06/19 05:49:26;;;;;;;3.78;2.21;;;;;;;;;;362203;147;858591;-58
2022/06/19 05:50:28;;;;;;;5.82;2.58;;;;;;;;;;363759;144;858665;-58
2022/06/19 05:51:30;;;;;;;4.41;2.39;;;;;;;;;;364564;147;857305;-57
2022/06/19 05:52:31;;;;;;;3.50;2.57;;;;;;;;;;363326;145;866643;-58
2022/06/19 05:53:34;;;;;;;2.89;2.50;;;;;;;;;;363116;145;859014;-65
2022/06/19 05:54:35;;;;;;;3.92;2.23;;;;;;;;;;364219;144;859479;-58
2022/06/19 05:55:37;;;;;;;3.74;2.33;;;;;;;;;;364484;146;857332;-60
2022/06/19 05:56:39;;;;;;;4.15;2.36;;;;;;;;;;363919;145;857425;-60
2022/06/19 05:57:40;;;;;;;3.53;2.54;;;;;;;;;;364661;145;859622;-61
2022/06/19 05:58:42;;;;;;;4.94;2.64;;;;;;;;;;364847;144;859695;-59
2022/06/19 05:59:46;;;;;;;2.69;2.46;;;;;;;;;;363116;146;857482;-59
2022/06/19 06:00:47;;;;;;;2.51;2.25;;;;;;;;;;363665;147;859099;-59
2022/06/19 06:01:49;;;;;;;3.05;2.16;;;;;;;;;;361954;147;857273;-60
2022/06/19 06:02:51;;;;;;;2.54;2.24;;;;;;;;;;364229;144;859504;-60
2022/06/19 06:03:52;;;;;;;4.63;2.21;;;;;;;;;;364148;147;864855;-59
2022/06/19 06:04:53;;;;;;;3.45;2.15;;;;;;;;;;364524;144;859581;-60
2022/06/19 06:05:59;;;;;;;2.15;1.95;;;;;;;;;;364522;146;857252;-59
2022/06/19 06:07:01;;;;;;;2.64;1.93;;;;;;;;;;362978;144;858947;-58
2022/06/19 06:08:02;;;;;;;3.25;2.04;;;;;;;;;;363213;145;857270;-59
2022/06/19 06:09:04;;;;;;;3.95;2.07;;;;;;;;;;363605;144;857369;-59
2022/06/19 06:10:06;;;;;;;3.40;2.02;;;;;;;;;;364515;144;866196;-59
2022/06/19 06:11:08;;;;;;;3.29;2.00;;;;;;;;;;362220;144;865220;-61
2022/06/19 06:12:10;;;;;;;2.79;1.95;;;;;;;;;;362599;147;856495;-59
2022/06/19 06:13:13;;;;;;;2.61;1.77;;;;;;;;;;363132;147;863494;-60
2022/06/19 06:14:14;;;;;;;2.44;1.63;;;;;;;;;;362085;146;858347;-61
2022/06/19 06:15:16;;;;;;;4.19;1.93;;;;;;;;;;361689;147;858918;-59
2022/06/19 06:16:20;;;;;;;3.05;1.86;;;;;;;;;;356841;149;856252;-60
2022/06/19 06:17:23;;;;;;;1.66;1.56;;;;;;;;;;355551;147;864642;-60
2022/06/19 06:18:25;;;;;;;4.19;1.86;;;;;;;;;;363694;147;857816;-59
2022/06/19 06:19:26;;;;;;;3.57;1.90;;;;;;;;;;364814;147;857425;-59
2022/06/19 06:20:28;;;;;;;4.21;1.74;;;;;;;;;;360849;147;859355;-59
2022/06/19 06:21:30;;;;;;;2.63;1.81;;;;;;;;;;363059;147;865505;-58
2022/06/19 06:22:31;;;;;;;3.01;1.71;;;;;;;;;;364705;147;858660;-59
2022/06/19 06:23:33;;;;;;;2.51;1.66;;;;;;;;;;366615;144;864622;-58
2022/06/19 06:24:34;;;;;;;3.15;1.42;;;;;;;;;;363994;145;857436;-59
2022/06/19 06:25:40;;;;;;;2.55;1.62;;;;;;;;;;364241;145;865291;-59
2022/06/19 06:26:40;;;;;;;2.79;1.32;;;;;;;;;;362920;144;858013;-59
2022/06/19 06:27:41;;;;;;;2.43;1.62;;;;;;;;;;363494;146;865872;-61
2022/06/19 06:28:44;;;;;;;3.37;1.65;;;;;;;;;;363757;145;857443;-59
2022/06/19 06:29:45;;;;;;;6.13;1.64;;;;;;;;;;362889;146;857310;-60
2022/06/19 06:30:47;;;;;;;2.94;1.81;;;;;;;;;;363178;144;857366;-60
2022/06/19 06:31:49;;;;;;;2.19;1.62;;;;;;;;;;364001;145;856600;-60
2022/06/19 06:32:50;;;;;;;2.78;1.45;;;;;;;;;;364596;144;857329;-61